createdAt,value
2023-02-17T00:00:29.093Z,7.31
2023-02-17T00:01:29.086Z,7.32
2023-02-17T00:02:29.083Z,7.31
2023-02-17T00:03:29.151Z,7.32
2023-02-17T00:04:29.035Z,7.32
2023-02-17T00:05:29.020Z,7.32
2023-02-17T00:06:29.020Z,7.31
2023-02-17T00:07:28.995Z,7.32
2023-02-17T00:08:28.982Z,7.31
2023-02-17T00:09:28.966Z,7.31
2023-02-17T00:10:28.955Z,7.32
2023-02-17T00:11:28.957Z,7.32
2023-02-17T00:12:28.950Z,7.34
2023-02-17T00:13:28.917Z,7.32
2023-02-17T00:14:28.898Z,7.31
2023-02-17T00:15:28.884Z,7.32
2023-02-17T00:16:28.877Z,7.32
2023-02-17T00:17:28.867Z,7.32
2023-02-17T00:18:28.853Z,7.31
2023-02-17T00:19:28.833Z,7.31
2023-02-17T00:20:28.816Z,7.31
2023-02-17T00:21:28.800Z,7.31
2023-02-17T00:22:28.788Z,7.31
2023-02-17T00:23:28.774Z,7.31
2023-02-17T00:24:28.763Z,7.31
2023-02-17T00:25:28.745Z,7.31
2023-02-17T00:26:28.744Z,7.31
2023-02-17T00:27:28.724Z,7.32
2023-02-17T00:28:28.732Z,7.29
2023-02-17T00:29:28.694Z,7.31
2023-02-17T00:30:28.793Z,7.32
2023-02-17T00:31:28.784Z,7.31
2023-02-17T00:32:28.665Z,7.32
2023-02-17T00:33:28.643Z,7.31
2023-02-17T00:34:28.630Z,7.31
2023-02-17T00:35:28.622Z,7.31
2023-02-17T00:36:28.605Z,7.31
2023-02-17T00:37:28.596Z,7.32
2023-02-17T00:38:28.576Z,7.34
2023-02-17T00:39:28.567Z,7.34
2023-02-17T00:40:28.550Z,7.34
2023-02-17T00:41:28.536Z,7.34
2023-02-17T00:42:28.522Z,7.32
2023-02-17T00:43:28.508Z,7.32
2023-02-17T00:44:28.520Z,7.31
2023-02-17T00:45:28.481Z,7.31
2023-02-17T00:46:28.588Z,7.32
2023-02-17T00:47:28.455Z,7.32
2023-02-17T00:48:28.488Z,7.32
2023-02-17T00:49:28.428Z,7.34
2023-02-17T00:50:28.416Z,7.34
2023-02-17T00:51:28.402Z,7.32
2023-02-17T00:52:28.390Z,7.32
2023-02-17T00:53:28.374Z,7.34
2023-02-17T00:54:28.363Z,7.32
2023-02-17T00:55:28.348Z,7.32
2023-02-17T00:56:28.335Z,7.34
2023-02-17T00:57:28.319Z,7.32
2023-02-17T00:58:28.311Z,7.32
2023-02-17T00:59:28.300Z,7.32
2023-02-17T01:00:28.307Z,7.31
2023-02-17T01:01:28.266Z,7.31
2023-02-17T01:02:28.256Z,7.32
2023-02-17T01:03:28.239Z,7.32
2023-02-17T01:04:28.269Z,7.32
2023-02-17T01:05:28.240Z,7.34
2023-02-17T01:06:28.205Z,7.34
2023-02-17T01:07:28.187Z,7.31
2023-02-17T01:08:28.173Z,7.32
2023-02-17T01:09:28.163Z,7.31
2023-02-17T01:10:28.144Z,7.32
2023-02-17T01:11:28.135Z,7.34
2023-02-17T01:12:28.117Z,7.32
2023-02-17T01:13:28.102Z,7.32
2023-02-17T01:14:28.103Z,7.32
2023-02-17T01:15:28.076Z,7.31
2023-02-17T01:16:28.189Z,7.31
2023-02-17T01:17:28.061Z,7.31
2023-02-17T01:18:28.039Z,7.34
2023-02-17T01:19:28.020Z,7.32
2023-02-17T01:20:28.010Z,7.32
2023-02-17T01:21:28.012Z,7.31
2023-02-17T01:22:27.980Z,7.32
2023-02-17T01:23:27.966Z,7.32
2023-02-17T01:24:27.954Z,7.31
2023-02-17T01:25:27.941Z,7.31
2023-02-17T01:26:27.930Z,7.34
2023-02-17T01:27:27.913Z,7.34
2023-02-17T01:28:27.908Z,7.34
2023-02-17T01:29:27.884Z,7.35
2023-02-17T01:30:27.928Z,7.35
2023-02-17T01:31:27.933Z,7.34
2023-02-17T01:32:27.874Z,7.35
2023-02-17T01:33:27.831Z,7.34
2023-02-17T01:34:27.816Z,7.34
2023-02-17T01:35:27.801Z,7.34
2023-02-17T01:36:27.786Z,7.34
2023-02-17T01:37:27.776Z,7.34
2023-02-17T01:38:27.759Z,7.34
2023-02-17T01:39:27.751Z,7.35
2023-02-17T01:40:27.736Z,7.34
2023-02-17T01:41:27.724Z,7.34
2023-02-17T01:42:27.702Z,7.34
2023-02-17T01:43:27.689Z,7.34
2023-02-17T01:44:27.676Z,7.35
2023-02-17T01:45:27.662Z,7.34
2023-02-17T01:46:27.682Z,7.34
2023-02-17T01:47:27.634Z,7.34
2023-02-17T01:48:27.669Z,7.32
2023-02-17T01:49:27.608Z,7.35
2023-02-17T01:50:27.592Z,7.34
2023-02-17T01:51:27.580Z,7.35
2023-02-17T01:52:27.562Z,7.34
2023-02-17T01:53:27.556Z,7.34
2023-02-17T01:54:27.538Z,7.34
2023-02-17T01:55:27.524Z,7.35
2023-02-17T01:56:27.511Z,7.34
2023-02-17T01:57:27.499Z,7.35
2023-02-17T01:58:27.484Z,7.35
2023-02-17T01:59:27.471Z,7.34
2023-02-17T02:00:27.457Z,7.34
2023-02-17T02:01:27.447Z,7.32
2023-02-17T02:02:27.544Z,7.35
2023-02-17T02:03:27.418Z,7.34
2023-02-17T02:04:27.426Z,7.34
2023-02-17T02:05:27.388Z,7.35
2023-02-17T02:06:27.375Z,7.34
2023-02-17T02:07:27.376Z,7.37
2023-02-17T02:08:27.348Z,7.34
2023-02-17T02:09:27.336Z,7.35
2023-02-17T02:10:27.320Z,7.34
2023-02-17T02:11:27.312Z,7.34
2023-02-17T02:12:27.301Z,7.32
2023-02-17T02:13:27.283Z,7.34
2023-02-17T02:14:27.269Z,7.35
2023-02-17T02:15:27.261Z,7.34
2023-02-17T02:16:27.325Z,7.35
2023-02-17T02:17:27.235Z,7.35
2023-02-17T02:18:27.216Z,7.34
2023-02-17T02:19:27.209Z,7.35
2023-02-17T02:20:27.217Z,7.34
2023-02-17T02:21:27.179Z,7.35
2023-02-17T02:22:27.164Z,7.34
2023-02-17T02:23:27.153Z,7.35
2023-02-17T02:24:27.136Z,7.34
2023-02-17T02:25:27.126Z,7.35
2023-02-17T02:26:27.119Z,7.35
2023-02-17T02:27:27.101Z,7.34
2023-02-17T02:28:27.085Z,7.35
2023-02-17T02:29:27.074Z,7.34
2023-02-17T02:30:27.090Z,7.34
2023-02-17T02:31:27.122Z,7.34
2023-02-17T02:32:27.034Z,7.35
2023-02-17T02:33:27.016Z,7.35
2023-02-17T02:34:27.002Z,7.35
2023-02-17T02:35:26.993Z,7.38
2023-02-17T02:36:27.010Z,7.35
2023-02-17T02:37:26.976Z,7.35
2023-02-17T02:38:26.947Z,7.35
2023-02-17T02:39:26.933Z,7.34
2023-02-17T02:40:26.923Z,7.34
2023-02-17T02:41:26.913Z,7.35
2023-02-17T02:42:26.894Z,7.34
2023-02-17T02:43:26.879Z,7.35
2023-02-17T02:44:26.868Z,7.35
2023-02-17T02:45:26.867Z,7.35
2023-02-17T02:46:26.838Z,7.35
2023-02-17T02:47:26.825Z,7.35
2023-02-17T02:48:26.812Z,7.35
2023-02-17T02:49:26.807Z,7.37
2023-02-17T02:50:26.785Z,7.35
2023-02-17T02:51:26.771Z,7.37
2023-02-17T02:52:26.823Z,7.35
2023-02-17T02:53:26.746Z,7.35
2023-02-17T02:54:26.736Z,7.37
2023-02-17T02:55:26.740Z,7.35
2023-02-17T02:56:26.704Z,7.34
2023-02-17T02:57:26.700Z,7.35
2023-02-17T02:58:26.682Z,7.35
2023-02-17T02:59:26.686Z,7.35
2023-02-17T03:00:26.656Z,7.37
2023-02-17T03:01:26.717Z,7.35
2023-02-17T03:02:26.621Z,7.35
2023-02-17T03:03:26.610Z,7.37
2023-02-17T03:04:26.622Z,7.35
2023-02-17T03:05:26.605Z,7.35
2023-02-17T03:06:26.565Z,7.37
2023-02-17T03:07:26.555Z,7.35
2023-02-17T03:08:26.563Z,7.37
2023-02-17T03:09:26.528Z,7.37
2023-02-17T03:10:26.510Z,7.35
2023-02-17T03:11:26.497Z,7.35
2023-02-17T03:12:26.487Z,7.35
2023-02-17T03:13:26.472Z,7.35
2023-02-17T03:14:26.467Z,7.35
2023-02-17T03:15:26.445Z,7.37
2023-02-17T03:16:26.442Z,7.37
2023-02-17T03:17:26.418Z,7.38
2023-02-17T03:18:26.413Z,7.35
2023-02-17T03:19:26.405Z,7.37
2023-02-17T03:20:26.379Z,7.37
2023-02-17T03:21:26.369Z,7.37
2023-02-17T03:22:26.347Z,7.37
2023-02-17T03:23:26.334Z,7.38
2023-02-17T03:24:26.456Z,7.37
2023-02-17T03:25:26.315Z,7.37
2023-02-17T03:26:26.294Z,7.37
2023-02-17T03:27:26.283Z,7.38
2023-02-17T03:28:26.270Z,7.37
2023-02-17T03:29:26.257Z,7.37
2023-02-17T03:30:26.259Z,7.40
2023-02-17T03:31:26.446Z,7.38
2023-02-17T03:32:26.238Z,7.37
2023-02-17T03:33:26.207Z,7.38
2023-02-17T03:34:26.188Z,7.37
2023-02-17T03:35:26.179Z,7.37
2023-02-17T03:36:26.162Z,7.38
2023-02-17T03:37:26.159Z,7.37
2023-02-17T03:38:26.134Z,7.37
2023-02-17T03:39:26.125Z,7.37
2023-02-17T03:40:26.131Z,7.40
2023-02-17T03:41:26.098Z,7.37
2023-02-17T03:42:26.081Z,7.38
2023-02-17T03:43:26.071Z,7.40
2023-02-17T03:44:26.060Z,7.38
2023-02-17T03:45:26.046Z,7.38
2023-02-17T03:46:26.026Z,7.38
2023-02-17T03:47:26.021Z,7.38
2023-02-17T03:48:25.999Z,7.38
2023-02-17T03:49:25.988Z,7.38
2023-02-17T03:50:25.981Z,7.38
2023-02-17T03:51:25.962Z,7.38
2023-02-17T03:52:25.947Z,7.38
2023-02-17T03:53:25.930Z,7.38
2023-02-17T03:54:25.918Z,7.38
2023-02-17T03:55:25.902Z,7.37
2023-02-17T03:56:25.912Z,7.37
2023-02-17T03:57:25.876Z,7.38
2023-02-17T03:58:25.860Z,7.37
2023-02-17T03:59:25.848Z,7.38
2023-02-17T04:00:25.833Z,7.38
2023-02-17T04:01:25.873Z,7.38
2023-02-17T04:02:25.809Z,7.37
2023-02-17T04:03:25.795Z,7.40
2023-02-17T04:04:25.828Z,7.40
2023-02-17T04:05:25.765Z,7.40
2023-02-17T04:06:25.751Z,7.38
2023-02-17T04:07:25.737Z,7.38
2023-02-17T04:08:25.723Z,7.38
2023-02-17T04:09:25.713Z,7.38
2023-02-17T04:10:25.695Z,7.37
2023-02-17T04:11:25.690Z,7.38
2023-02-17T04:12:25.692Z,7.38
2023-02-17T04:13:25.656Z,7.38
2023-02-17T04:14:25.640Z,7.40
2023-02-17T04:15:25.699Z,7.38
2023-02-17T04:16:25.614Z,7.38
2023-02-17T04:17:25.602Z,7.38
2023-02-17T04:18:25.587Z,7.38
2023-02-17T04:19:25.574Z,7.40
2023-02-17T04:20:25.557Z,7.40
2023-02-17T04:21:25.547Z,7.40
2023-02-17T04:22:25.534Z,7.38
2023-02-17T04:23:25.520Z,7.40
2023-02-17T04:24:25.506Z,7.38
2023-02-17T04:25:25.502Z,7.37
2023-02-17T04:26:25.478Z,7.38
2023-02-17T04:27:25.465Z,7.38
2023-02-17T04:28:25.480Z,7.40
2023-02-17T04:29:25.439Z,7.38
2023-02-17T04:30:25.536Z,7.38
2023-02-17T04:31:25.550Z,7.41
2023-02-17T04:32:25.399Z,7.40
2023-02-17T04:33:25.389Z,7.40
2023-02-17T04:34:26.380Z,7.38
2023-02-17T04:35:25.361Z,7.40
2023-02-17T04:36:25.348Z,7.40
2023-02-17T04:37:25.332Z,7.40
2023-02-17T04:38:25.318Z,7.40
2023-02-17T04:39:25.303Z,7.40
2023-02-17T04:40:25.287Z,7.40
2023-02-17T04:41:25.276Z,7.40
2023-02-17T04:42:25.266Z,7.40
2023-02-17T04:43:25.250Z,7.40
2023-02-17T04:44:25.261Z,7.40
2023-02-17T04:45:25.221Z,7.40
2023-02-17T04:46:25.251Z,7.40
2023-02-17T04:47:25.196Z,7.40
2023-02-17T04:48:25.177Z,7.40
2023-02-17T04:49:25.168Z,7.41
2023-02-17T04:50:25.152Z,7.41
2023-02-17T04:51:25.139Z,7.40
2023-02-17T04:52:25.126Z,7.41
2023-02-17T04:53:25.112Z,7.42
2023-02-17T04:54:25.097Z,7.41
2023-02-17T04:55:25.096Z,7.41
2023-02-17T04:56:25.070Z,7.41
2023-02-17T04:57:25.057Z,7.41
2023-02-17T04:58:25.042Z,7.41
2023-02-17T04:59:25.721Z,7.41
2023-02-17T05:00:25.039Z,7.41
2023-02-17T05:01:25.024Z,7.41
2023-02-17T05:02:24.988Z,7.40
2023-02-17T05:03:24.977Z,7.40
2023-02-17T05:04:25.085Z,7.41
2023-02-17T05:05:24.956Z,7.41
2023-02-17T05:06:24.944Z,7.41
2023-02-17T05:07:24.921Z,7.42
2023-02-17T05:08:24.908Z,7.41
2023-02-17T05:09:24.894Z,7.42
2023-02-17T05:10:24.887Z,7.41
2023-02-17T05:11:24.868Z,7.42
2023-02-17T05:12:24.855Z,7.41
2023-02-17T05:13:24.864Z,7.42
2023-02-17T05:14:24.831Z,7.41
2023-02-17T05:15:24.815Z,7.41
2023-02-17T05:16:24.859Z,7.42
2023-02-17T05:17:24.788Z,7.41
2023-02-17T05:18:24.786Z,7.41
2023-02-17T05:19:24.759Z,7.42
2023-02-17T05:20:24.746Z,7.42
2023-02-17T05:21:24.744Z,7.42
2023-02-17T05:22:24.719Z,7.41
2023-02-17T05:23:24.710Z,7.41
2023-02-17T05:24:24.693Z,7.42
2023-02-17T05:25:24.681Z,7.40
2023-02-17T05:26:24.670Z,7.42
2023-02-17T05:27:24.653Z,7.42
2023-02-17T05:28:24.646Z,7.42
2023-02-17T05:29:24.627Z,7.42
2023-02-17T05:30:24.670Z,7.42
2023-02-17T05:31:24.824Z,7.42
2023-02-17T05:32:24.607Z,7.41
2023-02-17T05:33:24.573Z,7.42
2023-02-17T05:34:24.558Z,7.41
2023-02-17T05:35:24.546Z,7.42
2023-02-17T05:36:24.532Z,7.40
2023-02-17T05:37:24.518Z,7.42
2023-02-17T05:38:24.508Z,7.41
2023-02-17T05:39:24.497Z,7.42
2023-02-17T05:40:24.477Z,7.41
2023-02-17T05:41:24.466Z,7.42
2023-02-17T05:42:24.454Z,7.42
2023-02-17T05:43:24.439Z,7.42
2023-02-17T05:44:24.434Z,7.42
2023-02-17T05:45:24.415Z,7.44
2023-02-17T05:46:24.445Z,7.42
2023-02-17T05:47:25.734Z,7.42
2023-02-17T05:48:24.397Z,7.45
2023-02-17T05:49:24.360Z,7.44
2023-02-17T05:50:24.345Z,7.44
2023-02-17T05:51:24.333Z,7.41
2023-02-17T05:52:24.325Z,7.42
2023-02-17T05:53:24.313Z,7.44
2023-02-17T05:54:24.299Z,7.44
2023-02-17T05:55:24.280Z,7.42
2023-02-17T05:56:24.277Z,7.42
2023-02-17T05:57:24.255Z,7.44
2023-02-17T05:58:24.241Z,7.44
2023-02-17T05:59:24.232Z,7.44
2023-02-17T06:00:24.214Z,7.42
2023-02-17T06:01:24.201Z,7.42
2023-02-17T06:02:24.188Z,7.42
2023-02-17T06:03:24.177Z,7.42
2023-02-17T06:04:24.475Z,7.42
2023-02-17T06:05:24.146Z,7.45
2023-02-17T06:06:24.136Z,7.44
2023-02-17T06:07:24.123Z,7.44
2023-02-17T06:08:24.114Z,7.44
2023-02-17T06:09:24.097Z,7.44
2023-02-17T06:10:24.083Z,7.44
2023-02-17T06:11:24.068Z,7.45
2023-02-17T06:12:24.069Z,7.44
2023-02-17T06:13:24.042Z,7.44
2023-02-17T06:14:24.029Z,7.45
2023-02-17T06:15:24.028Z,7.44
2023-02-17T06:16:24.045Z,7.44
2023-02-17T06:17:23.998Z,7.44
2023-02-17T06:18:23.978Z,7.44
2023-02-17T06:19:23.959Z,7.44
2023-02-17T06:20:23.984Z,7.42
2023-02-17T06:21:23.936Z,7.44
2023-02-17T06:22:23.927Z,7.45
2023-02-17T06:23:23.913Z,7.44
2023-02-17T06:24:23.896Z,7.44
2023-02-17T06:25:23.884Z,7.44
2023-02-17T06:26:23.871Z,7.45
2023-02-17T06:27:23.855Z,7.44
2023-02-17T06:28:23.846Z,7.42
2023-02-17T06:29:23.837Z,7.45
2023-02-17T06:30:23.857Z,7.44
2023-02-17T06:31:23.926Z,7.44
2023-02-17T06:32:23.790Z,7.44
2023-02-17T06:33:23.774Z,7.44
2023-02-17T06:34:23.770Z,7.44
2023-02-17T06:35:23.746Z,7.44
2023-02-17T06:36:23.762Z,7.44
2023-02-17T06:37:23.719Z,7.44
2023-02-17T06:38:23.806Z,7.44
2023-02-17T06:39:23.691Z,7.42
2023-02-17T06:40:23.680Z,7.44
2023-02-17T06:41:23.664Z,7.45
2023-02-17T06:42:23.657Z,7.44
2023-02-17T06:43:23.639Z,7.44
2023-02-17T06:44:23.625Z,7.44
2023-02-17T06:45:23.659Z,7.44
2023-02-17T06:46:23.599Z,7.45
2023-02-17T06:47:23.584Z,7.44
2023-02-17T06:48:23.575Z,7.47
2023-02-17T06:49:23.560Z,7.45
2023-02-17T06:50:23.552Z,7.44
2023-02-17T06:51:23.531Z,7.45
2023-02-17T06:52:23.543Z,7.44
2023-02-17T06:53:23.506Z,7.44
2023-02-17T06:54:23.492Z,7.45
2023-02-17T06:55:23.493Z,7.45
2023-02-17T06:56:23.467Z,7.45
2023-02-17T06:57:23.451Z,7.45
2023-02-17T06:58:23.453Z,7.47
2023-02-17T06:59:23.423Z,7.45
2023-02-17T07:00:23.419Z,7.47
2023-02-17T07:01:23.403Z,7.45
2023-02-17T07:02:23.569Z,7.47
2023-02-17T07:03:23.371Z,7.45
2023-02-17T07:04:23.360Z,7.47
2023-02-17T07:05:23.348Z,7.47
2023-02-17T07:06:23.337Z,7.47
2023-02-17T07:07:23.318Z,7.47
2023-02-17T07:08:23.340Z,7.47
2023-02-17T07:09:23.293Z,7.49
2023-02-17T07:10:23.282Z,7.45
2023-02-17T07:11:23.276Z,7.47
2023-02-17T07:12:23.253Z,7.49
2023-02-17T07:13:23.256Z,7.49
2023-02-17T07:14:24.971Z,7.47
2023-02-17T07:15:23.216Z,7.49
2023-02-17T07:16:23.289Z,7.50
2023-02-17T07:17:23.625Z,7.49
2023-02-17T07:18:23.185Z,7.47
2023-02-17T07:19:23.164Z,7.50
2023-02-17T07:20:23.156Z,7.49
2023-02-17T07:21:23.138Z,7.49
2023-02-17T07:22:23.126Z,7.49
2023-02-17T07:23:23.135Z,7.49
2023-02-17T07:24:23.136Z,7.49
2023-02-17T07:25:23.090Z,7.47
2023-02-17T07:26:23.074Z,7.49
2023-02-17T07:27:23.060Z,7.47
2023-02-17T07:28:23.046Z,7.47
2023-02-17T07:29:23.034Z,7.49
2023-02-17T07:30:23.059Z,7.49
2023-02-17T07:31:23.212Z,7.50
2023-02-17T07:32:22.995Z,7.47
2023-02-17T07:33:22.981Z,7.50
2023-02-17T07:34:22.978Z,7.49
2023-02-17T07:35:22.953Z,7.50
2023-02-17T07:36:22.951Z,7.50
2023-02-17T07:37:22.938Z,7.49
2023-02-17T07:38:22.917Z,7.50
2023-02-17T07:39:22.898Z,7.50
2023-02-17T07:40:22.924Z,7.50
2023-02-17T07:41:22.871Z,7.50
2023-02-17T07:42:22.858Z,7.50
2023-02-17T07:43:22.845Z,7.50
2023-02-17T07:44:22.840Z,7.50
2023-02-17T07:45:22.817Z,7.49
2023-02-17T07:46:22.912Z,7.50
2023-02-17T07:47:22.793Z,7.50
2023-02-17T07:48:22.781Z,7.50
2023-02-17T07:49:22.762Z,7.50
2023-02-17T07:50:22.752Z,7.52
2023-02-17T07:51:22.736Z,7.50
2023-02-17T07:52:22.724Z,7.49
2023-02-17T07:53:22.711Z,7.52
2023-02-17T07:54:22.747Z,7.50
2023-02-17T07:55:22.692Z,7.52
2023-02-17T07:56:22.691Z,7.52
2023-02-17T07:57:22.653Z,7.52
2023-02-17T07:58:22.640Z,7.52
2023-02-17T07:59:22.627Z,7.53
2023-02-17T08:00:22.615Z,7.53
2023-02-17T08:01:22.602Z,7.55
2023-02-17T08:02:22.634Z,7.53
2023-02-17T08:03:22.575Z,7.55
2023-02-17T08:04:22.682Z,7.53
2023-02-17T08:05:22.557Z,7.55
2023-02-17T08:06:22.539Z,7.55
2023-02-17T08:07:22.524Z,7.55
2023-02-17T08:08:22.511Z,7.55
2023-02-17T08:09:22.494Z,7.55
2023-02-17T08:10:22.485Z,7.56
2023-02-17T08:11:22.472Z,7.55
2023-02-17T08:12:22.492Z,7.56
2023-02-17T08:13:22.442Z,7.53
2023-02-17T08:14:22.530Z,7.55
2023-02-17T08:15:22.418Z,7.55
2023-02-17T08:16:22.419Z,7.58
2023-02-17T08:17:22.392Z,7.55
2023-02-17T08:18:22.409Z,7.55
2023-02-17T08:19:22.363Z,7.58
2023-02-17T08:20:22.354Z,7.55
2023-02-17T08:21:22.351Z,7.56
2023-02-17T08:22:22.334Z,7.56
2023-02-17T08:23:22.317Z,7.56
2023-02-17T08:24:22.303Z,7.58
2023-02-17T08:25:22.288Z,7.56
2023-02-17T08:26:22.274Z,7.56
2023-02-17T08:27:22.277Z,7.58
2023-02-17T08:28:22.276Z,7.56
2023-02-17T08:29:22.235Z,7.56
2023-02-17T08:30:22.283Z,7.56
2023-02-17T08:31:22.411Z,7.58
2023-02-17T08:32:22.195Z,7.56
2023-02-17T08:33:22.185Z,7.56
2023-02-17T08:34:22.286Z,7.56
2023-02-17T08:35:22.156Z,7.58
2023-02-17T08:36:22.173Z,7.53
2023-02-17T08:37:22.129Z,7.56
2023-02-17T08:38:22.119Z,7.56
2023-02-17T08:39:22.114Z,7.55
2023-02-17T08:40:22.095Z,7.55
2023-02-17T08:41:22.080Z,7.55
2023-02-17T08:42:22.073Z,7.55
2023-02-17T08:43:22.050Z,7.55
2023-02-17T08:44:22.113Z,7.55
2023-02-17T08:45:22.043Z,7.56
2023-02-17T08:46:22.138Z,7.56
2023-02-17T08:47:22.000Z,7.56
2023-02-17T08:48:22.020Z,7.56
2023-02-17T08:49:22.035Z,7.55
2023-02-17T08:50:21.995Z,7.55
2023-02-17T08:51:21.983Z,7.56
2023-02-17T08:52:21.929Z,7.55
2023-02-17T08:53:21.941Z,7.56
2023-02-17T08:54:21.918Z,7.56
2023-02-17T08:55:21.888Z,7.56
2023-02-17T08:56:21.938Z,7.56
2023-02-17T08:57:21.877Z,7.56
2023-02-17T08:58:21.910Z,7.58
2023-02-17T08:59:21.836Z,7.58
2023-02-17T09:00:21.860Z,7.56
2023-02-17T09:01:21.866Z,7.59
2023-02-17T09:02:21.827Z,7.59
2023-02-17T09:03:21.838Z,7.60
2023-02-17T09:04:21.879Z,7.58
2023-02-17T09:05:21.838Z,7.58
2023-02-17T09:06:21.758Z,7.60
2023-02-17T09:07:21.762Z,7.58
2023-02-17T09:08:21.775Z,7.59
2023-02-17T09:09:21.751Z,7.56
2023-02-17T09:10:21.695Z,7.58
2023-02-17T09:11:21.685Z,7.59
2023-02-17T09:12:21.675Z,7.59
2023-02-17T09:13:21.674Z,7.59
2023-02-17T09:14:21.680Z,7.59
2023-02-17T09:15:21.647Z,7.60
2023-02-17T09:16:21.666Z,7.59
2023-02-17T09:17:21.624Z,7.60
2023-02-17T09:18:21.648Z,7.62
2023-02-17T09:19:21.614Z,7.62
2023-02-17T09:20:25.003Z,7.60
2023-02-17T09:21:21.543Z,7.62
2023-02-17T09:22:31.568Z,7.62
2023-02-17T09:23:22.572Z,7.62
2023-02-17T09:24:21.513Z,7.63
2023-02-17T09:25:21.523Z,7.63
2023-02-17T09:26:21.509Z,7.65
2023-02-17T09:27:21.467Z,7.63
2023-02-17T09:28:21.470Z,7.63
2023-02-17T09:29:21.441Z,7.65
2023-02-17T09:30:21.478Z,7.66
2023-02-17T09:31:21.669Z,7.66
2023-02-17T09:32:21.489Z,7.66
2023-02-17T09:33:21.401Z,7.68
2023-02-17T09:34:21.407Z,7.68
2023-02-17T09:35:21.389Z,7.68
2023-02-17T09:36:21.408Z,7.68
2023-02-17T09:37:21.336Z,7.66
2023-02-17T09:38:21.323Z,7.66
2023-02-17T09:39:21.310Z,7.66
2023-02-17T09:40:21.299Z,7.68
2023-02-17T09:41:21.358Z,7.68
2023-02-17T09:42:21.281Z,7.68
2023-02-17T09:43:21.294Z,7.68
2023-02-17T09:44:21.291Z,7.70
2023-02-17T09:45:21.331Z,7.68
2023-02-17T09:46:21.252Z,7.71
2023-02-17T09:47:21.383Z,7.71
2023-02-17T09:48:21.214Z,7.73
2023-02-17T09:49:21.220Z,7.73
2023-02-17T09:50:21.165Z,7.74
2023-02-17T09:51:21.156Z,7.74
2023-02-17T09:52:21.212Z,7.73
2023-02-17T09:53:21.178Z,7.73
2023-02-17T09:54:21.130Z,7.74
2023-02-17T09:55:21.223Z,7.73
2023-02-17T09:56:21.148Z,7.73
2023-02-17T09:57:21.152Z,7.73
2023-02-17T09:58:21.079Z,7.73
2023-02-17T09:59:21.043Z,7.73
2023-02-17T10:00:21.029Z,7.74
2023-02-17T10:01:21.139Z,7.76
2023-02-17T10:02:21.044Z,7.76
2023-02-17T10:03:21.043Z,7.78
2023-02-17T10:04:21.200Z,7.80
2023-02-17T10:05:21.088Z,7.80
2023-02-17T10:06:20.989Z,7.80
2023-02-17T10:07:20.951Z,7.83
2023-02-17T10:08:20.961Z,7.84
2023-02-17T10:09:20.919Z,7.84
2023-02-17T10:10:21.026Z,7.88
2023-02-17T10:11:20.886Z,7.88
2023-02-17T10:12:20.871Z,7.89
2023-02-17T10:13:20.875Z,7.89
2023-02-17T10:14:20.847Z,7.89
2023-02-17T10:15:20.981Z,7.86
2023-02-17T10:16:20.974Z,7.88
2023-02-17T10:17:20.860Z,7.88
2023-02-17T10:18:20.791Z,7.89
2023-02-17T10:19:20.778Z,7.89
2023-02-17T10:20:20.974Z,7.88
2023-02-17T10:21:20.753Z,7.86
2023-02-17T10:22:20.778Z,7.84
2023-02-17T10:23:20.732Z,7.83
2023-02-17T10:24:20.829Z,7.83
2023-02-17T10:25:20.749Z,7.83
2023-02-17T10:26:20.849Z,7.86
2023-02-17T10:27:20.791Z,7.86
2023-02-17T10:28:20.659Z,7.84
2023-02-17T10:29:20.731Z,7.86
2023-02-17T10:30:20.747Z,7.86
2023-02-17T10:31:20.795Z,7.86
2023-02-17T10:32:20.753Z,7.86
2023-02-17T10:33:20.595Z,7.84
2023-02-17T10:34:20.668Z,7.84
2023-02-17T10:35:20.641Z,7.88
2023-02-17T10:36:20.639Z,7.88
2023-02-17T10:37:20.543Z,7.88
2023-02-17T10:38:20.534Z,7.89
2023-02-17T10:39:20.516Z,7.89
2023-02-17T10:40:20.631Z,7.88
2023-02-17T10:41:20.490Z,7.91
2023-02-17T10:42:20.479Z,7.91
2023-02-17T10:43:20.465Z,7.93
2023-02-17T10:44:20.448Z,7.93
2023-02-17T10:45:20.445Z,7.95
2023-02-17T10:46:20.470Z,7.96
2023-02-17T10:47:20.414Z,7.95
2023-02-17T10:48:20.398Z,7.95
2023-02-17T10:49:20.396Z,7.95
2023-02-17T10:50:20.460Z,7.92
2023-02-17T10:51:20.358Z,7.92
2023-02-17T10:52:20.373Z,7.92
2023-02-17T10:53:20.346Z,7.92
2023-02-17T10:54:20.317Z,7.92
2023-02-17T10:55:23.162Z,7.92
2023-02-17T10:56:20.290Z,7.93
2023-02-17T10:57:20.280Z,7.95
2023-02-17T10:58:20.279Z,7.96
2023-02-17T10:59:20.255Z,7.98
2023-02-17T11:00:20.359Z,7.98
2023-02-17T11:01:20.227Z,7.99
2023-02-17T11:02:20.235Z,8.01
2023-02-17T11:03:20.202Z,7.99
2023-02-17T11:04:20.186Z,7.99
2023-02-17T11:05:20.223Z,7.99
2023-02-17T11:06:20.178Z,7.99
2023-02-17T11:07:20.156Z,8.01
2023-02-17T11:08:20.158Z,8.02
2023-02-17T11:09:20.127Z,8.06
2023-02-17T11:10:20.155Z,8.03
2023-02-17T11:11:20.093Z,8.06
2023-02-17T11:12:20.086Z,8.06
2023-02-17T11:13:20.071Z,8.06
2023-02-17T11:14:20.059Z,8.06
2023-02-17T11:15:20.044Z,8.07
2023-02-17T11:16:20.059Z,8.07
2023-02-17T11:17:20.023Z,8.09
2023-02-17T11:18:20.014Z,8.09
2023-02-17T11:19:19.993Z,8.09
2023-02-17T11:20:20.137Z,8.10
2023-02-17T11:21:19.966Z,8.10
2023-02-17T11:22:19.957Z,8.10
2023-02-17T11:23:19.941Z,8.11
2023-02-17T11:24:19.949Z,8.14
2023-02-17T11:25:19.916Z,8.13
2023-02-17T11:26:19.908Z,8.14
2023-02-17T11:27:19.889Z,8.13
2023-02-17T11:28:19.875Z,8.13
2023-02-17T11:29:19.863Z,8.13
2023-02-17T11:30:19.994Z,8.14
2023-02-17T11:31:19.937Z,8.11
2023-02-17T11:32:19.851Z,8.13
2023-02-17T11:33:19.815Z,8.14
2023-02-17T11:34:19.796Z,8.14
2023-02-17T11:35:19.791Z,8.16
2023-02-17T11:36:19.770Z,8.14
2023-02-17T11:37:19.767Z,8.13
2023-02-17T11:38:19.744Z,8.14
2023-02-17T11:39:19.737Z,8.16
2023-02-17T11:40:21.039Z,8.17
2023-02-17T11:41:19.707Z,8.17
2023-02-17T11:42:19.693Z,8.19
2023-02-17T11:43:19.683Z,8.17
2023-02-17T11:44:19.667Z,8.17
2023-02-17T11:45:19.655Z,8.20
2023-02-17T11:46:19.719Z,8.21
2023-02-17T11:47:19.660Z,8.21
2023-02-17T11:48:19.614Z,8.24
2023-02-17T11:49:19.604Z,8.29
2023-02-17T11:50:31.704Z,8.28
2023-02-17T11:51:20.618Z,8.29
2023-02-17T11:52:19.564Z,8.28
2023-02-17T11:53:19.553Z,8.28
2023-02-17T11:54:19.537Z,8.27
2023-02-17T11:55:19.528Z,8.28
2023-02-17T11:56:19.533Z,8.27
2023-02-17T11:57:19.497Z,8.31
2023-02-17T11:58:19.481Z,8.31
2023-02-17T11:59:19.469Z,8.32
2023-02-17T12:00:19.484Z,8.32
2023-02-17T12:01:19.444Z,8.32
2023-02-17T12:02:19.428Z,8.32
2023-02-17T12:03:19.502Z,8.29
2023-02-17T12:04:19.402Z,8.28
2023-02-17T12:05:19.492Z,8.29
2023-02-17T12:06:19.376Z,8.28
2023-02-17T12:07:19.363Z,8.28
2023-02-17T12:08:19.350Z,8.27
2023-02-17T12:09:19.337Z,8.25
2023-02-17T12:10:19.324Z,8.25
2023-02-17T12:11:19.310Z,8.28
2023-02-17T12:12:19.319Z,8.29
2023-02-17T12:13:19.286Z,8.32
2023-02-17T12:14:19.273Z,8.34
2023-02-17T12:15:19.258Z,8.32
2023-02-17T12:16:19.287Z,8.34
2023-02-17T12:17:19.230Z,8.34
2023-02-17T12:18:19.215Z,8.32
2023-02-17T12:19:19.201Z,8.34
2023-02-17T12:20:19.194Z,8.32
2023-02-17T12:21:19.178Z,8.35
2023-02-17T12:22:19.187Z,8.37
2023-02-17T12:23:19.150Z,8.35
2023-02-17T12:24:19.134Z,8.37
2023-02-17T12:25:19.129Z,8.39
2023-02-17T12:26:19.109Z,8.39
2023-02-17T12:27:19.096Z,8.37
2023-02-17T12:28:19.111Z,8.39
2023-02-17T12:29:19.069Z,8.35
2023-02-17T12:30:19.261Z,8.35
2023-02-17T12:31:19.158Z,8.35
2023-02-17T12:32:19.157Z,8.37
2023-02-17T12:33:19.018Z,8.34
2023-02-17T12:34:19.003Z,8.34
2023-02-17T12:35:18.995Z,8.34
2023-02-17T12:36:18.978Z,8.32
2023-02-17T12:37:18.974Z,8.35
2023-02-17T12:38:18.953Z,8.37
2023-02-17T12:39:18.945Z,8.37
2023-02-17T12:40:18.929Z,8.37
2023-02-17T12:41:18.916Z,8.37
2023-02-17T12:42:18.905Z,8.39
2023-02-17T12:43:18.888Z,8.42
2023-02-17T12:44:18.897Z,8.42
2023-02-17T12:45:18.862Z,8.42
2023-02-17T12:46:18.894Z,8.44
2023-02-17T12:47:18.840Z,8.45
2023-02-17T12:48:18.822Z,8.42
2023-02-17T12:49:18.814Z,8.42
2023-02-17T12:50:18.811Z,8.47
2023-02-17T12:51:18.790Z,8.47
2023-02-17T12:52:18.769Z,8.50
2023-02-17T12:53:18.759Z,8.51
2023-02-17T12:54:18.748Z,8.51
2023-02-17T12:55:21.024Z,8.51
2023-02-17T12:56:18.717Z,8.53
2023-02-17T12:57:18.706Z,8.53
2023-02-17T12:58:18.698Z,8.51
2023-02-17T12:59:18.682Z,8.53
2023-02-17T13:00:18.691Z,8.55
2023-02-17T13:01:18.668Z,8.54
2023-02-17T13:02:18.684Z,8.57
2023-02-17T13:03:18.628Z,8.58
2023-02-17T13:04:18.619Z,8.58
2023-02-17T13:05:18.601Z,8.57
2023-02-17T13:06:18.588Z,8.58
2023-02-17T13:07:21.080Z,8.57
2023-02-17T13:08:18.562Z,8.58
2023-02-17T13:09:18.549Z,8.58
2023-02-17T13:10:18.536Z,8.58
2023-02-17T13:11:18.524Z,8.58
2023-02-17T13:12:18.508Z,8.57
2023-02-17T13:13:18.499Z,8.58
2023-02-17T13:14:18.485Z,8.62
2023-02-17T13:15:18.471Z,8.60
2023-02-17T13:16:18.523Z,8.62
2023-02-17T13:17:18.444Z,8.60
2023-02-17T13:18:18.438Z,8.58